Time;durP1;ratioP1;P1;durP2;ratioP2;P2;SDS_P1;SDS_P2;PMS_P1;PMS_P2;Temp;Humidity;BMP_temperature;BMP_pressure;BME280_temperature;BME280_humidity;BME280_pressure;Samples;Min_cycle;Max_cycle;Signal;HPM_P1;HPM_P2
2023/09/15 00:01:21;;;;;;;7.82;4.75;;;;;;;;;;5055010;28;20358;-52
2023/09/15 00:03:47;;;;;;;11.02;5.25;;;;;;;;;;5054955;28;20021;-54
2023/09/15 00:06:13;;;;;;;11.27;5.03;;;;;;;;;;5055082;28;20108;-55
2023/09/15 00:08:39;;;;;;;10.82;4.78;;;;;;;;;;5054781;28;20036;-55
2023/09/15 00:11:07;;;;;;;8.02;4.78;;;;;;;;;;5054093;28;20029;-55
2023/09/15 00:13:32;;;;;;;12.88;4.93;;;;;;;;;;5054654;28;20107;-54
2023/09/15 00:15:58;;;;;;;10.85;4.78;;;;;;;;;;5053629;28;20083;-54
2023/09/15 00:18:25;;;;;;;16.23;5.10;;;;;;;;;;5056624;28;20032;-55
2023/09/15 00:20:50;;;;;;;10.35;5.03;;;;;;;;;;5054352;28;20328;-53
2023/09/15 00:23:17;;;;;;;9.90;4.78;;;;;;;;;;5054337;28;20470;-54
2023/09/15 00:25:45;;;;;;;8.98;4.95;;;;;;;;;;5054311;28;20108;-55
2023/09/15 00:28:12;;;;;;;9.38;4.93;;;;;;;;;;5053823;28;20029;-54
2023/09/15 00:30:38;;;;;;;10.13;5.03;;;;;;;;;;5054313;28;20021;-53
2023/09/15 00:33:03;;;;;;;10.05;5.28;;;;;;;;;;5053816;28;20029;-54
2023/09/15 00:35:30;;;;;;;9.45;5.32;;;;;;;;;;5054232;28;20051;-55
2023/09/15 00:37:56;;;;;;;10.88;4.78;;;;;;;;;;5053616;28;20028;-56
2023/09/15 00:40:23;;;;;;;11.15;4.40;;;;;;;;;;5054039;28;20029;-54
2023/09/15 00:42:51;;;;;;;9.55;4.70;;;;;;;;;;5054083;28;20033;-56
2023/09/15 00:45:19;;;;;;;11.40;4.85;;;;;;;;;;5054091;28;20045;-55
2023/09/15 00:47:58;;;;;;;9.60;4.70;;;;;;;;;;5053953;28;20040;-55
2023/09/15 00:50:29;;;;;;;12.20;5.30;;;;;;;;;;5052822;28;20032;-54
2023/09/15 00:53:00;;;;;;;;;;;;;;;;;;5053867;28;20036;-56
2023/09/15 00:55:27;;;;;;;8.23;4.65;;;;;;;;;;5052755;28;20269;-55
2023/09/15 00:57:54;;;;;;;9.02;4.93;;;;;;;;;;5053607;28;20036;-55
2023/09/15 01:00:20;;;;;;;12.80;5.00;;;;;;;;;;5053934;28;20112;-55
2023/09/15 01:02:46;;;;;;;11.32;5.18;;;;;;;;;;5053738;28;20064;-55
2023/09/15 01:05:20;;;;;;;12.77;5.05;;;;;;;;;;5053229;28;20115;-54
2023/09/15 01:07:51;;;;;;;9.60;5.40;;;;;;;;;;5053685;28;20079;-56
2023/09/15 01:10:18;;;;;;;11.35;5.07;;;;;;;;;;5052544;28;20077;-55
2023/09/15 01:12:45;;;;;;;8.18;4.95;;;;;;;;;;5053172;28;20082;-54
2023/09/15 01:15:11;;;;;;;10.38;5.22;;;;;;;;;;5053061;28;20040;-55
2023/09/15 01:17:47;;;;;;;12.27;5.18;;;;;;;;;;5053036;28;20057;-55
2023/09/15 01:20:24;;;;;;;13.07;5.72;;;;;;;;;;5052614;28;20491;-56
2023/09/15 01:23:10;;;;;;;11.85;5.20;;;;;;;;;;5053387;28;20025;-56
2023/09/15 01:26:15;;;;;;;12.77;5.65;;;;;;;;;;5053176;28;20021;-55
2023/09/15 01:29:05;;;;;;;10.20;4.90;;;;;;;;;;5053513;28;20064;-55
2023/09/15 01:31:30;;;;;;;7.97;5.15;;;;;;;;;;5051754;28;20029;-56
2023/09/15 01:33:56;;;;;;;11.93;5.40;;;;;;;;;;5052343;28;20029;-52
2023/09/15 01:36:22;;;;;;;12.63;5.70;;;;;;;;;;5052902;28;20061;-53
2023/09/15 01:38:47;;;;;;;10.88;5.30;;;;;;;;;;5052523;28;20048;-55
2023/09/15 01:41:12;;;;;;;9.27;5.28;;;;;;;;;;5051694;28;20028;-52
2023/09/15 01:43:38;;;;;;;11.85;5.68;;;;;;;;;;5052851;28;20029;-55
2023/09/15 01:46:04;;;;;;;14.60;6.00;;;;;;;;;;5052300;28;20445;-52
2023/09/15 01:48:30;;;;;;;12.07;5.75;;;;;;;;;;5052803;28;20032;-55
2023/09/15 01:50:57;;;;;;;11.57;5.80;;;;;;;;;;5050864;28;20025;-54
2023/09/15 01:53:24;;;;;;;13.07;5.45;;;;;;;;;;5052687;28;20044;-51
2023/09/15 01:55:49;;;;;;;10.05;6.00;;;;;;;;;;5052580;28;20025;-52
2023/09/15 01:58:15;;;;;;;12.23;6.38;;;;;;;;;;5052097;28;20463;-51
2023/09/15 02:00:40;;;;;;;10.43;5.38;;;;;;;;;;5052635;28;20466;-54
2023/09/15 02:03:06;;;;;;;10.73;5.97;;;;;;;;;;5050576;28;20033;-55
2023/09/15 02:05:32;;;;;;;11.25;6.28;;;;;;;;;;5053730;28;20021;-56
2023/09/15 02:07:57;;;;;;;10.35;5.70;;;;;;;;;;5053140;28;20122;-57
2023/09/15 02:10:23;;;;;;;11.10;5.72;;;;;;;;;;5051621;28;20032;-57
2023/09/15 02:12:49;;;;;;;11.90;5.57;;;;;;;;;;5052299;28;20043;-54
2023/09/15 02:15:15;;;;;;;12.18;5.68;;;;;;;;;;5051682;28;20029;-51
2023/09/15 02:17:40;;;;;;;10.52;5.70;;;;;;;;;;5051816;28;20462;-56
2023/09/15 02:20:12;;;;;;;10.55;5.72;;;;;;;;;;5051788;28;20035;-55
2023/09/15 02:22:42;;;;;;;11.63;5.63;;;;;;;;;;5052268;28;20025;-52
2023/09/15 02:25:10;;;;;;;12.63;5.85;;;;;;;;;;5051336;28;20104;-55
2023/09/15 02:27:37;;;;;;;10.98;5.35;;;;;;;;;;5052090;28;20033;-52
2023/09/15 02:30:06;;;;;;;9.43;5.60;;;;;;;;;;5051820;28;20029;-56
2023/09/15 02:32:32;;;;;;;12.07;5.57;;;;;;;;;;5052123;28;20036;-56
2023/09/15 02:34:57;;;;;;;11.43;5.55;;;;;;;;;;5050295;28;20063;-54
2023/09/15 02:37:23;;;;;;;12.52;5.75;;;;;;;;;;5051782;28;20524;-52
2023/09/15 02:39:48;;;;;;;10.73;6.00;;;;;;;;;;5050563;28;20400;-55
2023/09/15 02:42:14;;;;;;;13.45;6.35;;;;;;;;;;5051333;28;20106;-54
2023/09/15 02:44:42;;;;;;;17.20;6.38;;;;;;;;;;5052006;28;20171;-51
2023/09/15 02:47:08;;;;;;;11.80;6.68;;;;;;;;;;5051258;28;20033;-55
2023/09/15 02:49:33;;;;;;;11.88;6.07;;;;;;;;;;5051052;28;20037;-55
2023/09/15 02:52:01;;;;;;;10.75;5.78;;;;;;;;;;5051121;28;20329;-56
2023/09/15 02:54:26;;;;;;;13.07;6.18;;;;;;;;;;5051992;28;20470;-56
2023/09/15 02:56:51;;;;;;;9.45;5.60;;;;;;;;;;5051887;28;20091;-54
2023/09/15 02:59:17;;;;;;;12.60;6.68;;;;;;;;;;5051242;28;20288;-51
2023/09/15 03:01:46;;;;;;;11.02;6.43;;;;;;;;;;5051696;28;20484;-55
2023/09/15 03:04:11;;;;;;;10.35;5.57;;;;;;;;;;5051137;28;20048;-56
2023/09/15 03:06:39;;;;;;;13.23;6.35;;;;;;;;;;5051647;28;20033;-54
2023/09/15 03:09:05;;;;;;;10.40;5.80;;;;;;;;;;5051035;28;20025;-55
2023/09/15 03:11:31;;;;;;;19.83;7.63;;;;;;;;;;5051798;28;20040;-55
2023/09/15 03:13:56;;;;;;;9.65;5.90;;;;;;;;;;5050297;28;20044;-53
2023/09/15 03:16:23;;;;;;;12.63;6.20;;;;;;;;;;5049327;28;20056;-56
2023/09/15 03:18:49;;;;;;;11.75;5.53;;;;;;;;;;5051568;28;20461;-55
2023/09/15 03:21:14;;;;;;;12.32;5.70;;;;;;;;;;5049640;28;20032;-55
2023/09/15 03:23:40;;;;;;;11.43;5.47;;;;;;;;;;5051216;28;20026;-55
2023/09/15 03:26:06;;;;;;;12.75;6.25;;;;;;;;;;5050648;28;20130;-55
2023/09/15 03:28:35;;;;;;;12.90;6.20;;;;;;;;;;5050707;28;20029;-52
2023/09/15 03:31:05;;;;;;;16.58;6.88;;;;;;;;;;5050928;28;20035;-56
2023/09/15 03:33:31;;;;;;;12.23;5.97;;;;;;;;;;5051441;28;20527;-53
2023/09/15 03:35:57;;;;;;;12.93;6.07;;;;;;;;;;5051443;28;20029;-55
2023/09/15 03:38:23;;;;;;;17.02;6.40;;;;;;;;;;5050773;28;20055;-56
2023/09/15 03:40:48;;;;;;;12.25;6.07;;;;;;;;;;5051312;28;20533;-52
2023/09/15 03:43:14;;;;;;;13.65;6.25;;;;;;;;;;5050288;28;20423;-53
2023/09/15 03:45:39;;;;;;;9.52;6.15;;;;;;;;;;5049669;28;20083;-55
2023/09/15 03:48:05;;;;;;;13.73;6.47;;;;;;;;;;5049226;28;20032;-53
2023/09/15 03:50:35;;;;;;;10.93;5.90;;;;;;;;;;5051317;28;20028;-54
2023/09/15 03:53:00;;;;;;;14.05;6.43;;;;;;;;;;5052690;28;20065;-56
2023/09/15 03:55:26;;;;;;;11.52;6.05;;;;;;;;;;5051282;28;20064;-56
2023/09/15 03:57:52;;;;;;;13.15;6.05;;;;;;;;;;5050912;28;20025;-57
2023/09/15 04:00:19;;;;;;;11.40;5.75;;;;;;;;;;5050670;28;20025;-56
2023/09/15 04:02:44;;;;;;;10.88;6.30;;;;;;;;;;5053598;28;20036;-55
2023/09/15 04:05:10;;;;;;;14.25;6.30;;;;;;;;;;5054318;28;20033;-52
2023/09/15 04:07:40;;;;;;;11.07;6.10;;;;;;;;;;5054569;28;20036;-55
2023/09/15 04:10:07;;;;;;;11.30;6.30;;;;;;;;;;5054255;28;20024;-56
2023/09/15 04:12:35;;;;;;;12.82;6.38;;;;;;;;;;5053669;28;20028;-52
2023/09/15 04:15:00;;;;;;;11.27;6.07;;;;;;;;;;5053599;28;20040;-54
2023/09/15 04:17:26;;;;;;;10.13;6.25;;;;;;;;;;5052396;28;20052;-55
2023/09/15 04:19:51;;;;;;;14.10;5.93;;;;;;;;;;5054759;28;20037;-55
2023/09/15 04:22:19;;;;;;;12.23;6.43;;;;;;;;;;5053962;28;20033;-53
2023/09/15 04:24:44;;;;;;;11.07;6.32;;;;;;;;;;5054783;28;20035;-54
2023/09/15 04:27:10;;;;;;;14.05;6.13;;;;;;;;;;5053640;28;20025;-53
2023/09/15 04:29:54;;;;;;;12.30;6.20;;;;;;;;;;5054656;28;20032;-56
2023/09/15 04:32:19;;;;;;;9.63;5.82;;;;;;;;;;5053886;28;20033;-55
2023/09/15 04:34:45;;;;;;;11.15;5.97;;;;;;;;;;5054241;28;20040;-56
2023/09/15 04:37:10;;;;;;;12.77;6.35;;;;;;;;;;5053587;28;20115;-53
2023/09/15 04:39:35;;;;;;;12.10;5.68;;;;;;;;;;5054180;28;20025;-52
2023/09/15 04:42:01;;;;;;;10.88;6.18;;;;;;;;;;5054439;28;20029;-55
2023/09/15 04:44:26;;;;;;;15.15;6.35;;;;;;;;;;5053691;28;20367;-54
2023/09/15 04:46:51;;;;;;;11.60;6.25;;;;;;;;;;5054127;28;20053;-54
2023/09/15 04:49:17;;;;;;;12.02;6.55;;;;;;;;;;5052106;28;20029;-56
2023/09/15 04:51:42;;;;;;;13.48;6.60;;;;;;;;;;5053950;28;20493;-55
2023/09/15 04:54:10;;;;;;;16.00;6.03;;;;;;;;;;5053510;28;20049;-53
2023/09/15 04:56:36;;;;;;;15.50;7.32;;;;;;;;;;5054117;28;20033;-56
2023/09/15 04:59:01;;;;;;;12.45;6.78;;;;;;;;;;5053794;28;20040;-54
2023/09/15 05:01:27;;;;;;;12.07;6.55;;;;;;;;;;5053282;28;20517;-53
2023/09/15 05:03:52;;;;;;;10.70;6.68;;;;;;;;;;5053606;28;20520;-55
2023/09/15 05:06:18;;;;;;;11.57;6.40;;;;;;;;;;5052973;28;20037;-52
2023/09/15 05:08:43;;;;;;;14.23;6.55;;;;;;;;;;5053756;28;20473;-56
2023/09/15 05:11:09;;;;;;;9.07;5.95;;;;;;;;;;5052647;28;20389;-55
2023/09/15 05:13:34;;;;;;;11.40;6.05;;;;;;;;;;5052390;28;20372;-55
2023/09/15 05:16:02;;;;;;;11.85;6.22;;;;;;;;;;5052777;28;20116;-54
2023/09/15 05:18:29;;;;;;;12.50;6.13;;;;;;;;;;5051096;28;20614;-55
2023/09/15 05:20:55;;;;;;;10.43;5.88;;;;;;;;;;5053317;28;20444;-51
2023/09/15 05:23:20;;;;;;;14.75;6.72;;;;;;;;;;5052669;28;20029;-54
2023/09/15 05:25:49;;;;;;;10.52;6.15;;;;;;;;;;5051861;28;20466;-55
2023/09/15 05:28:15;;;;;;;13.30;6.70;;;;;;;;;;5052575;28;20090;-54
2023/09/15 05:30:40;;;;;;;13.00;6.72;;;;;;;;;;5035526;28;20028;-52
2023/09/15 05:33:08;;;;;;;12.60;6.85;;;;;;;;;;5053009;28;20489;-56
2023/09/15 05:35:34;;;;;;;12.45;7.05;;;;;;;;;;5053137;28;20025;-54
2023/09/15 05:38:00;;;;;;;14.88;6.90;;;;;;;;;;5053200;28;20035;-53
2023/09/15 05:40:25;;;;;;;13.27;6.80;;;;;;;;;;5053122;28;20028;-55
2023/09/15 05:42:53;;;;;;;14.95;7.32;;;;;;;;;;5052888;28;20028;-54
2023/09/15 05:45:18;;;;;;;12.82;6.85;;;;;;;;;;5051568;28;20036;-54
2023/09/15 05:47:43;;;;;;;12.23;6.90;;;;;;;;;;5052579;28;20033;-54
2023/09/15 05:50:09;;;;;;;16.52;7.72;;;;;;;;;;5052189;28;20036;-53
2023/09/15 05:52:34;;;;;;;12.90;7.05;;;;;;;;;;5052814;28;20070;-54
2023/09/15 05:55:00;;;;;;;16.20;7.78;;;;;;;;;;5052665;28;20102;-57
2023/09/15 05:57:25;;;;;;;14.70;7.68;;;;;;;;;;5052116;28;20037;-55
2023/09/15 05:59:51;;;;;;;14.93;6.97;;;;;;;;;;5051299;28;20064;-57
2023/09/15 06:02:18;;;;;;;13.40;7.00;;;;;;;;;;5050629;28;20025;-54
2023/09/15 06:04:46;;;;;;;15.73;7.20;;;;;;;;;;5052399;28;20033;-53
2023/09/15 06:07:11;;;;;;;14.40;8.00;;;;;;;;;;5051831;28;20033;-51
2023/09/15 06:09:36;;;;;;;16.88;7.72;;;;;;;;;;5052441;28;20104;-51
2023/09/15 06:12:02;;;;;;;15.23;8.25;;;;;;;;;;5052462;28;20025;-52
2023/09/15 06:14:27;;;;;;;13.45;8.35;;;;;;;;;;5051078;28;20028;-54
2023/09/15 06:16:53;;;;;;;19.52;8.98;;;;;;;;;;5051750;28;20053;-56
2023/09/15 06:19:18;;;;;;;13.57;8.63;;;;;;;;;;5050338;28;20025;-56
2023/09/15 06:21:44;;;;;;;16.40;9.15;;;;;;;;;;5051976;28;20086;-55
2023/09/15 06:24:09;;;;;;;18.58;9.73;;;;;;;;;;5050756;28;20067;-55
2023/09/15 06:26:37;;;;;;;18.13;10.18;;;;;;;;;;5051306;28;20036;-53
2023/09/15 06:29:05;;;;;;;20.50;10.70;;;;;;;;;;5051837;28;20048;-56
2023/09/15 06:31:30;;;;;;;19.80;11.73;;;;;;;;;;5050348;28;20839;-53
2023/09/15 06:33:56;;;;;;;18.25;11.70;;;;;;;;;;5052136;28;20522;-55
2023/09/15 06:36:21;;;;;;;17.95;10.60;;;;;;;;;;5051588;28;20098;-54
2023/09/15 06:38:47;;;;;;;18.20;10.82;;;;;;;;;;5050819;28;20037;-52
2023/09/15 06:41:13;;;;;;;18.10;10.32;;;;;;;;;;5051141;28;20020;-53
2023/09/15 06:43:38;;;;;;;15.70;9.88;;;;;;;;;;5050602;28;20435;-56
2023/09/15 06:46:04;;;;;;;18.52;9.13;;;;;;;;;;5051825;28;20021;-57
2023/09/15 06:48:30;;;;;;;18.17;9.43;;;;;;;;;;5051346;28;20040;-54
2023/09/15 06:50:55;;;;;;;12.68;8.60;;;;;;;;;;5050657;28;20051;-56
2023/09/15 06:53:21;;;;;;;15.30;8.63;;;;;;;;;;5049967;28;20367;-53
2023/09/15 06:55:46;;;;;;;14.43;8.63;;;;;;;;;;5051659;28;20120;-56
2023/09/15 06:58:12;;;;;;;14.45;8.02;;;;;;;;;;5051929;28;20410;-54
2023/09/15 07:00:37;;;;;;;14.60;8.18;;;;;;;;;;5051742;28;20036;-52
2023/09/15 07:03:03;;;;;;;12.32;7.88;;;;;;;;;;5052075;28;20183;-54
2023/09/15 07:05:28;;;;;;;10.93;7.57;;;;;;;;;;5051169;28;20025;-53
2023/09/15 07:07:56;;;;;;;13.88;7.45;;;;;;;;;;5051667;28;20025;-55
2023/09/15 07:10:22;;;;;;;13.00;7.80;;;;;;;;;;5051171;28;20480;-52
2023/09/15 07:12:48;;;;;;;16.33;7.55;;;;;;;;;;5051363;28;20040;-53
2023/09/15 07:15:13;;;;;;;13.80;7.75;;;;;;;;;;5050880;28;20029;-55
2023/09/15 07:17:39;;;;;;;14.88;7.50;;;;;;;;;;5050096;28;20056;-53
2023/09/15 07:20:05;;;;;;;13.05;7.40;;;;;;;;;;5051430;28;20432;-55
2023/09/15 07:22:30;;;;;;;13.52;6.80;;;;;;;;;;5050694;28;20060;-56
2023/09/15 07:24:56;;;;;;;10.98;6.53;;;;;;;;;;5051577;28;20450;-54
2023/09/15 07:27:23;;;;;;;12.27;6.55;;;;;;;;;;5050959;28;20025;-54
2023/09/15 07:29:48;;;;;;;12.13;6.20;;;;;;;;;;5050535;28;20079;-57
2023/09/15 07:32:15;;;;;;;9.77;5.70;;;;;;;;;;5051322;28;20425;-58
2023/09/15 07:34:41;;;;;;;11.05;5.72;;;;;;;;;;5051498;28;20036;-56
2023/09/15 07:37:06;;;;;;;12.73;7.20;;;;;;;;;;5054577;28;20037;-56
2023/09/15 07:39:32;;;;;;;11.98;6.20;;;;;;;;;;5054711;28;20029;-55
2023/09/15 07:41:57;;;;;;;10.30;5.55;;;;;;;;;;5055316;28;20025;-56
2023/09/15 07:44:23;;;;;;;13.00;5.80;;;;;;;;;;5054640;28;20061;-53
2023/09/15 07:46:48;;;;;;;11.05;5.20;;;;;;;;;;5055157;28;20032;-52
2023/09/15 07:49:14;;;;;;;11.95;6.45;;;;;;;;;;5055235;28;20029;-54
2023/09/15 07:51:39;;;;;;;14.15;6.25;;;;;;;;;;5054540;28;20424;-55
2023/09/15 07:54:04;;;;;;;9.98;5.53;;;;;;;;;;5053701;28;20025;-56
2023/09/15 07:56:30;;;;;;;10.18;5.82;;;;;;;;;;5054157;28;20547;-53
2023/09/15 07:58:55;;;;;;;10.88;6.25;;;;;;;;;;5055190;28;20458;-54
2023/09/15 08:01:21;;;;;;;10.75;6.45;;;;;;;;;;5054542;28;20040;-52
2023/09/15 08:03:46;;;;;;;12.93;6.45;;;;;;;;;;5053826;28;20025;-55
2023/09/15 08:06:13;;;;;;;11.98;6.10;;;;;;;;;;5054596;28;20536;-54
2023/09/15 08:08:38;;;;;;;9.05;5.90;;;;;;;;;;5054396;28;20032;-56
2023/09/15 08:11:04;;;;;;;10.13;6.05;;;;;;;;;;5054931;28;20035;-54
2023/09/15 08:13:29;;;;;;;9.00;5.63;;;;;;;;;;5054239;28;20441;-54
2023/09/15 08:15:54;;;;;;;11.35;5.80;;;;;;;;;;5054299;28;20049;-54
2023/09/15 08:18:21;;;;;;;8.35;5.82;;;;;;;;;;5054311;28;20025;-53
2023/09/15 08:20:46;;;;;;;11.07;5.70;;;;;;;;;;5054926;28;20040;-52
2023/09/15 08:23:12;;;;;;;12.90;6.20;;;;;;;;;;5054772;28;20037;-57
2023/09/15 08:25:38;;;;;;;12.63;5.90;;;;;;;;;;5053645;28;20115;-51
2023/09/15 08:28:06;;;;;;;11.30;6.07;;;;;;;;;;5054401;28;20059;-56
2023/09/15 08:30:33;;;;;;;15.65;6.10;;;;;;;;;;5052621;28;20107;-57
2023/09/15 08:32:58;;;;;;;11.18;6.15;;;;;;;;;;5054434;28;20032;-53
2023/09/15 08:35:24;;;;;;;10.32;5.93;;;;;;;;;;5053445;28;20087;-52
2023/09/15 08:37:49;;;;;;;12.63;5.45;;;;;;;;;;5054454;28;20033;-56
2023/09/15 08:40:15;;;;;;;10.25;5.95;;;;;;;;;;5054262;28;20033;-54
2023/09/15 08:42:40;;;;;;;7.97;5.40;;;;;;;;;;5053545;28;20025;-51
2023/09/15 08:45:07;;;;;;;10.93;6.03;;;;;;;;;;5053872;28;20029;-52
2023/09/15 08:47:35;;;;;;;11.00;6.13;;;;;;;;;;5051694;28;20427;-53
2023/09/15 08:50:03;;;;;;;10.75;5.70;;;;;;;;;;5054057;28;20028;-52
2023/09/15 08:52:30;;;;;;;11.52;5.53;;;;;;;;;;5053467;28;20056;-53
2023/09/15 08:54:56;;;;;;;9.85;5.38;;;;;;;;;;5053905;28;20025;-54
2023/09/15 08:57:22;;;;;;;9.85;5.15;;;;;;;;;;5053366;28;20124;-56
2023/09/15 08:59:50;;;;;;;8.68;5.32;;;;;;;;;;5053935;28;20473;-55
2023/09/15 09:02:16;;;;;;;10.07;5.72;;;;;;;;;;5054003;28;20036;-54
2023/09/15 09:04:41;;;;;;;11.05;5.40;;;;;;;;;;5053215;28;20073;-51
2023/09/15 09:07:07;;;;;;;9.80;5.20;;;;;;;;;;5053671;28;20051;-55
2023/09/15 09:09:34;;;;;;;10.93;5.05;;;;;;;;;;5053056;28;20037;-56
2023/09/15 09:11:59;;;;;;;9.73;5.35;;;;;;;;;;5052651;28;20033;-53
2023/09/15 09:14:25;;;;;;;9.57;5.10;;;;;;;;;;5052847;28;20098;-56
2023/09/15 09:16:52;;;;;;;8.95;4.70;;;;;;;;;;5052293;28;20119;-55
2023/09/15 09:19:18;;;;;;;9.02;4.80;;;;;;;;;;5054253;28;20075;-51
2023/09/15 09:21:44;;;;;;;10.13;5.00;;;;;;;;;;5052655;28;20025;-56
2023/09/15 09:24:10;;;;;;;9.85;4.57;;;;;;;;;;5053396;28;20033;-54
2023/09/15 09:26:36;;;;;;;10.30;4.50;;;;;;;;;;5052568;28;20071;-55
2023/09/15 09:29:03;;;;;;;10.38;5.47;;;;;;;;;;5053484;28;20132;-56
2023/09/15 09:31:29;;;;;;;10.70;5.28;;;;;;;;;;5052557;28;20035;-55
2023/09/15 09:33:57;;;;;;;9.05;4.90;;;;;;;;;;5052226;28;20032;-57
2023/09/15 09:36:23;;;;;;;7.30;4.70;;;;;;;;;;5052364;28;20033;-56
2023/09/15 09:38:50;;;;;;;8.63;3.95;;;;;;;;;;5053335;28;20078;-53
2023/09/15 09:41:21;;;;;;;9.13;3.70;;;;;;;;;;5053086;28;20029;-54
2023/09/15 09:43:47;;;;;;;5.93;3.20;;;;;;;;;;5052654;28;20469;-54
2023/09/15 09:46:13;;;;;;;5.28;2.75;;;;;;;;;;5051663;28;20060;-51
2023/09/15 09:48:39;;;;;;;8.40;2.75;;;;;;;;;;5052157;28;20107;-51
2023/09/15 09:51:06;;;;;;;5.45;2.67;;;;;;;;;;5052634;28;20028;-56
2023/09/15 09:53:33;;;;;;;4.90;2.80;;;;;;;;;;5052328;28;20461;-52
2023/09/15 09:56:05;;;;;;;5.70;2.70;;;;;;;;;;5051593;28;20393;-55
2023/09/15 09:58:32;;;;;;;5.80;2.80;;;;;;;;;;5050649;28;20036;-53
2023/09/15 10:00:58;;;;;;;6.10;2.90;;;;;;;;;;5052681;28;20032;-56
2023/09/15 10:03:23;;;;;;;5.95;2.80;;;;;;;;;;5052262;28;20064;-57
2023/09/15 10:05:49;;;;;;;7.07;2.85;;;;;;;;;;5052865;28;20080;-55
2023/09/15 10:08:15;;;;;;;5.80;2.45;;;;;;;;;;5052717;28;20037;-53
2023/09/15 10:10:44;;;;;;;7.95;2.88;;;;;;;;;;5051779;28;20056;-55
2023/09/15 10:13:10;;;;;;;5.88;2.60;;;;;;;;;;5052500;28;20445;-55
2023/09/15 10:15:36;;;;;;;7.05;2.85;;;;;;;;;;5051175;28;20492;-51
2023/09/15 10:18:05;;;;;;;4.15;2.67;;;;;;;;;;5052562;28;20025;-55
2023/09/15 10:20:32;;;;;;;7.03;2.95;;;;;;;;;;5050442;28;20028;-55
2023/09/15 10:22:59;;;;;;;4.75;2.70;;;;;;;;;;5052572;28;20354;-53
2023/09/15 10:25:24;;;;;;;7.20;3.50;;;;;;;;;;5050737;28;20025;-60
2023/09/15 10:27:50;;;;;;;7.20;3.17;;;;;;;;;;5051029;28;20033;-55
2023/09/15 10:30:16;;;;;;;6.53;2.90;;;;;;;;;;5052407;28;20078;-54
2023/09/15 10:32:43;;;;;;;4.57;2.45;;;;;;;;;;5051724;28;20029;-54
2023/09/15 10:35:10;;;;;;;5.35;2.65;;;;;;;;;;5051037;28;20043;-55
2023/09/15 10:37:43;;;;;;;5.53;2.70;;;;;;;;;;5051316;28;20061;-56
2023/09/15 10:40:13;;;;;;;8.32;2.72;;;;;;;;;;5052280;28;20067;-57
2023/09/15 10:42:51;;;;;;;5.35;2.75;;;;;;;;;;5050354;28;20029;-54
2023/09/15 10:45:19;;;;;;;6.30;3.10;;;;;;;;;;5051837;28;20433;-55
2023/09/15 10:47:56;;;;;;;5.93;2.70;;;;;;;;;;5049800;28;20037;-52
2023/09/15 10:50:32;;;;;;;7.22;2.83;;;;;;;;;;5052250;28;20061;-55
2023/09/15 10:53:14;;;;;;;5.57;2.97;;;;;;;;;;5050956;28;20029;-55
2023/09/15 10:55:40;;;;;;;5.03;2.83;;;;;;;;;;5050913;28;20429;-56
2023/09/15 10:58:06;;;;;;;4.90;2.63;;;;;;;;;;5052056;28;20486;-56
2023/09/15 11:00:32;;;;;;;6.85;2.50;;;;;;;;;;5051441;28;20025;-54
2023/09/15 11:02:58;;;;;;;7.25;3.03;;;;;;;;;;5052649;28;20111;-56
2023/09/15 11:05:27;;;;;;;6.25;2.80;;;;;;;;;;5052104;28;20081;-56
2023/09/15 11:07:57;;;;;;;4.97;2.88;;;;;;;;;;5051496;28;20425;-53
2023/09/15 11:10:27;;;;;;;7.10;3.08;;;;;;;;;;5052387;28;20029;-55
2023/09/15 11:13:03;;;;;;;5.10;2.58;;;;;;;;;;5055970;28;20462;-53
2023/09/15 11:15:29;;;;;;;6.43;2.97;;;;;;;;;;5055086;28;20040;-51
2023/09/15 11:17:54;;;;;;;6.55;2.78;;;;;;;;;;5055430;28;20049;-52
2023/09/15 11:20:24;;;;;;;6.20;2.80;;;;;;;;;;5054481;28;20060;-56
2023/09/15 11:22:59;;;;;;;7.85;3.22;;;;;;;;;;5054044;28;20029;-54
2023/09/15 11:25:24;;;;;;;4.03;2.72;;;;;;;;;;5055840;28;20032;-53
2023/09/15 11:27:50;;;;;;;6.80;3.25;;;;;;;;;;5054862;28;20116;-54
2023/09/15 11:30:16;;;;;;;5.03;3.22;;;;;;;;;;5055762;28;20033;-55
2023/09/15 11:32:42;;;;;;;6.43;3.10;;;;;;;;;;5055136;28;20032;-57
2023/09/15 11:35:11;;;;;;;6.50;3.28;;;;;;;;;;5055651;28;20024;-53
2023/09/15 11:37:38;;;;;;;5.85;3.30;;;;;;;;;;5054877;28;20112;-56
2023/09/15 11:40:07;;;;;;;4.25;3.33;;;;;;;;;;5055504;28;20064;-58
2023/09/15 11:42:32;;;;;;;4.20;3.33;;;;;;;;;;5054841;28;20117;-58
2023/09/15 11:44:59;;;;;;;6.75;3.83;;;;;;;;;;5054165;28;20060;-57
2023/09/15 11:47:26;;;;;;;6.03;4.18;;;;;;;;;;5053880;28;20033;-57
2023/09/15 11:49:52;;;;;;;5.15;4.03;;;;;;;;;;5054669;28;20084;-58
2023/09/15 11:52:18;;;;;;;6.45;3.55;;;;;;;;;;5054187;28;20060;-58
2023/09/15 11:54:44;;;;;;;6.35;3.70;;;;;;;;;;5054643;28;20028;-58
2023/09/15 11:57:10;;;;;;;6.93;4.10;;;;;;;;;;5054870;28;20556;-61
2023/09/15 11:59:36;;;;;;;7.85;4.03;;;;;;;;;;5054662;28;20060;-59
2023/09/15 12:02:02;;;;;;;6.72;4.18;;;;;;;;;;5054359;28;20029;-58
2023/09/15 12:04:29;;;;;;;6.03;4.45;;;;;;;;;;5055059;28;20037;-58
2023/09/15 12:06:54;;;;;;;5.80;4.35;;;;;;;;;;5054231;28;20029;-58
2023/09/15 12:09:22;;;;;;;5.35;4.20;;;;;;;;;;5055203;28;20106;-58
2023/09/15 12:11:47;;;;;;;5.07;4.50;;;;;;;;;;5054363;28;20036;-57
2023/09/15 12:14:13;;;;;;;7.00;4.75;;;;;;;;;;5053328;28;20028;-60
2023/09/15 12:16:39;;;;;;;6.38;5.15;;;;;;;;;;5053777;28;20059;-58
2023/09/15 12:19:05;;;;;;;6.82;4.82;;;;;;;;;;5054841;28;20025;-58
2023/09/15 12:21:30;;;;;;;7.35;4.93;;;;;;;;;;5054493;28;20048;-58
2023/09/15 12:24:09;;;;;;;6.60;5.03;;;;;;;;;;5054189;28;20029;-56
2023/09/15 12:26:37;;;;;;;5.93;4.80;;;;;;;;;;5053726;28;20024;-58
2023/09/15 12:29:03;;;;;;;6.75;5.22;;;;;;;;;;5054644;28;20060;-58
2023/09/15 12:31:28;;;;;;;6.95;5.30;;;;;;;;;;5053337;28;20118;-58
2023/09/15 12:33:55;;;;;;;7.78;5.05;;;;;;;;;;5053928;28;20505;-57
2023/09/15 12:36:22;;;;;;;6.30;4.82;;;;;;;;;;5054082;28;20416;-57
2023/09/15 12:38:48;;;;;;;7.68;5.05;;;;;;;;;;5053839;28;20029;-57
2023/09/15 12:41:14;;;;;;;6.70;5.00;;;;;;;;;;5054134;28;20513;-57
2023/09/15 12:43:40;;;;;;;7.05;4.95;;;;;;;;;;5054111;28;20117;-57
2023/09/15 12:46:05;;;;;;;6.22;4.60;;;;;;;;;;5054362;28;20055;-58
2023/09/15 12:48:31;;;;;;;6.00;4.70;;;;;;;;;;5054276;28;20116;-58
2023/09/15 12:50:56;;;;;;;5.50;4.90;;;;;;;;;;5054316;28;20033;-59
2023/09/15 12:53:22;;;;;;;6.78;5.05;;;;;;;;;;5054456;28;20025;-58
2023/09/15 12:55:47;;;;;;;5.78;4.80;;;;;;;;;;5052427;28;20020;-58
2023/09/15 12:58:13;;;;;;;6.65;5.40;;;;;;;;;;5053899;28;20036;-59
2023/09/15 13:00:38;;;;;;;6.47;5.40;;;;;;;;;;5053669;28;20100;-58
2023/09/15 13:03:05;;;;;;;6.22;5.18;;;;;;;;;;5054107;28;20021;-59
2023/09/15 13:05:31;;;;;;;7.30;5.80;;;;;;;;;;5052663;28;20432;-59
2023/09/15 13:07:56;;;;;;;6.60;5.35;;;;;;;;;;5052958;28;20025;-59
2023/09/15 13:10:22;;;;;;;7.57;5.75;;;;;;;;;;5052573;28;20032;-59
2023/09/15 13:12:47;;;;;;;7.93;5.90;;;;;;;;;;5053256;28;20032;-59
2023/09/15 13:15:13;;;;;;;8.20;5.90;;;;;;;;;;5053611;28;20025;-59
2023/09/15 13:17:39;;;;;;;8.55;6.00;;;;;;;;;;5052416;28;20091;-59
2023/09/15 13:20:08;;;;;;;6.28;5.68;;;;;;;;;;5053471;28;20032;-60
2023/09/15 13:22:37;;;;;;;7.70;5.97;;;;;;;;;;5053715;28;20047;-59
2023/09/15 13:25:04;;;;;;;6.07;5.57;;;;;;;;;;5053846;28;20258;-59
2023/09/15 13:27:30;;;;;;;6.53;5.80;;;;;;;;;;5053644;28;20025;-59
2023/09/15 13:29:57;;;;;;;6.35;5.75;;;;;;;;;;5052735;28;20410;-59
2023/09/15 13:32:26;;;;;;;6.80;5.80;;;;;;;;;;5052413;28;20069;-59
2023/09/15 13:34:53;;;;;;;7.50;5.80;;;;;;;;;;5052040;28;20025;-59
2023/09/15 13:37:19;;;;;;;6.53;5.90;;;;;;;;;;5053446;28;20091;-59
2023/09/15 13:39:44;;;;;;;6.72;6.03;;;;;;;;;;5052684;28;20028;-60
2023/09/15 13:42:10;;;;;;;6.35;5.75;;;;;;;;;;5053386;28;20417;-59
2023/09/15 13:44:35;;;;;;;7.20;5.38;;;;;;;;;;5052044;28;20032;-60
2023/09/15 13:47:00;;;;;;;8.10;5.90;;;;;;;;;;5052335;28;20025;-59
2023/09/15 13:49:26;;;;;;;7.30;6.13;;;;;;;;;;5051763;28;20029;-60
2023/09/15 13:51:51;;;;;;;7.50;5.75;;;;;;;;;;5052289;28;20029;-59
2023/09/15 13:54:18;;;;;;;6.40;5.70;;;;;;;;;;5053282;28;20029;-60
2023/09/15 13:56:43;;;;;;;6.72;5.72;;;;;;;;;;5052422;28;20057;-59
2023/09/15 13:59:08;;;;;;;6.70;5.97;;;;;;;;;;5052944;28;20475;-59
2023/09/15 14:01:37;;;;;;;7.13;5.70;;;;;;;;;;5053026;28;20029;-59
2023/09/15 14:04:02;;;;;;;8.48;5.55;;;;;;;;;;5053029;28;20048;-58
2023/09/15 14:06:28;;;;;;;6.43;5.70;;;;;;;;;;5052855;28;20029;-59
2023/09/15 14:08:53;;;;;;;8.13;5.65;;;;;;;;;;5052074;28;20407;-59
2023/09/15 14:11:18;;;;;;;8.35;5.82;;;;;;;;;;5052747;28;20028;-59
2023/09/15 14:13:44;;;;;;;8.32;6.10;;;;;;;;;;5051758;28;20033;-58
2023/09/15 14:16:09;;;;;;;6.20;5.60;;;;;;;;;;5052216;28;20048;-59
2023/09/15 14:18:35;;;;;;;6.32;5.82;;;;;;;;;;5051338;28;20381;-58
2023/09/15 14:21:00;;;;;;;6.63;5.80;;;;;;;;;;5050722;28;20040;-58
2023/09/15 14:23:26;;;;;;;6.40;5.80;;;;;;;;;;5051194;28;20028;-59
2023/09/15 14:25:52;;;;;;;6.38;5.78;;;;;;;;;;5051917;28;20033;-59
2023/09/15 14:28:17;;;;;;;7.70;6.03;;;;;;;;;;5052221;28;20033;-60
2023/09/15 14:30:43;;;;;;;7.20;5.60;;;;;;;;;;5050641;28;20029;-59
2023/09/15 14:33:11;;;;;;;6.63;6.03;;;;;;;;;;5052120;28;20465;-60